createdAt,value
2023-02-01T00:00:04.085Z,6.82
2023-02-01T00:01:04.035Z,6.79
2023-02-01T00:02:04.020Z,6.75
2023-02-01T00:03:04.121Z,6.63
2023-02-01T00:04:03.987Z,6.59
2023-02-01T00:05:03.999Z,6.81
2023-02-01T00:06:03.994Z,6.82
2023-02-01T00:07:03.951Z,6.74
2023-02-01T00:08:03.974Z,6.84
2023-02-01T00:09:03.984Z,6.95
2023-02-01T00:10:03.920Z,6.81
2023-02-01T00:11:03.921Z,6.92
2023-02-01T00:12:03.930Z,7.00
2023-02-01T00:13:03.891Z,6.92
2023-02-01T00:14:04.586Z,6.81
2023-02-01T00:15:03.935Z,6.79
2023-02-01T00:16:04.071Z,6.75
2023-02-01T00:17:03.845Z,6.69
2023-02-01T00:18:03.856Z,6.81
2023-02-01T00:19:03.915Z,6.84
2023-02-01T00:20:03.815Z,6.78
2023-02-01T00:21:03.830Z,6.70
2023-02-01T00:22:03.800Z,6.85
2023-02-01T00:23:03.791Z,6.77
2023-02-01T00:24:03.796Z,6.85
2023-02-01T00:25:03.811Z,6.74
2023-02-01T00:26:03.747Z,6.79
2023-02-01T00:27:03.739Z,6.74
2023-02-01T00:28:03.731Z,6.67
2023-02-01T00:29:03.726Z,6.69
2023-02-01T00:30:03.765Z,6.75
2023-02-01T00:31:03.829Z,6.66
2023-02-01T00:32:03.794Z,6.62
2023-02-01T00:33:03.662Z,6.77
2023-02-01T00:34:03.667Z,6.75
2023-02-01T00:35:04.691Z,6.69
2023-02-01T00:36:03.682Z,6.62
2023-02-01T00:37:03.613Z,6.70
2023-02-01T00:38:03.617Z,6.69
2023-02-01T00:39:03.613Z,6.72
2023-02-01T00:40:03.626Z,6.79
2023-02-01T00:41:04.569Z,6.72
2023-02-01T00:42:04.605Z,6.67
2023-02-01T00:43:03.564Z,6.67
2023-02-01T00:44:03.579Z,6.77
2023-02-01T00:45:03.569Z,6.74
2023-02-01T00:46:03.559Z,6.70
2023-02-01T00:47:03.561Z,6.66
2023-02-01T00:48:03.529Z,6.69
2023-02-01T00:49:03.526Z,6.57
2023-02-01T00:50:04.488Z,6.60
2023-02-01T00:51:04.466Z,6.74
2023-02-01T00:52:03.505Z,6.60
2023-02-01T00:53:03.504Z,6.67
2023-02-01T00:54:03.449Z,6.70
2023-02-01T00:55:04.427Z,6.67
2023-02-01T00:56:03.408Z,6.66
2023-02-01T00:57:03.415Z,6.72
2023-02-01T00:58:04.454Z,6.78
2023-02-01T00:59:03.418Z,6.92
2023-02-01T01:00:03.386Z,6.81
2023-02-01T01:01:04.420Z,6.81
2023-02-01T01:02:03.504Z,6.84
2023-02-01T01:03:03.358Z,6.79
2023-02-01T01:04:03.372Z,6.81
2023-02-01T01:05:03.334Z,6.88
2023-02-01T01:06:03.312Z,6.92
2023-02-01T01:07:03.340Z,7.02
2023-02-01T01:08:03.336Z,6.95
2023-02-01T01:09:03.293Z,7.02
2023-02-01T01:10:04.245Z,7.00
2023-02-01T01:11:03.246Z,7.05
2023-02-01T01:12:04.239Z,6.97
2023-02-01T01:13:03.218Z,6.95
2023-02-01T01:14:03.262Z,7.10
2023-02-01T01:15:03.228Z,6.93
2023-02-01T01:16:04.236Z,6.88
2023-02-01T01:17:03.187Z,6.96
2023-02-01T01:18:04.176Z,6.95
2023-02-01T01:19:03.195Z,6.84
2023-02-01T01:20:03.191Z,6.99
2023-02-01T01:21:03.158Z,6.97
2023-02-01T01:22:03.124Z,6.99
2023-02-01T01:23:04.145Z,6.96
2023-02-01T01:24:04.127Z,6.87
2023-02-01T01:25:03.096Z,6.88
2023-02-01T01:26:03.147Z,6.99
2023-02-01T01:27:03.105Z,6.93
2023-02-01T01:28:04.051Z,6.82
2023-02-01T01:29:03.051Z,7.00
2023-02-01T01:30:03.073Z,7.02
2023-02-01T01:31:03.153Z,7.02
2023-02-01T01:32:04.036Z,7.07
2023-02-01T01:33:02.992Z,6.96
2023-02-01T01:34:03.044Z,6.99
2023-02-01T01:35:04.031Z,7.10
2023-02-01T01:36:02.995Z,7.17
2023-02-01T01:37:02.969Z,7.13
2023-02-01T01:38:02.950Z,7.11
2023-02-01T01:39:02.940Z,7.18
2023-02-01T01:40:03.948Z,7.13
2023-02-01T01:41:03.029Z,7.13
2023-02-01T01:42:02.893Z,7.10
2023-02-01T01:43:02.896Z,7.03
2023-02-01T01:44:02.917Z,7.07
2023-02-01T01:45:02.881Z,7.05
2023-02-01T01:46:02.931Z,7.17
2023-02-01T01:47:02.957Z,7.13
2023-02-01T01:48:02.831Z,7.24
2023-02-01T01:49:02.830Z,7.02
2023-02-01T01:50:02.809Z,7.23
2023-02-01T01:51:02.805Z,7.20
2023-02-01T01:52:02.827Z,7.21
2023-02-01T01:53:02.799Z,7.11
2023-02-01T01:54:03.782Z,7.07
2023-02-01T01:55:02.765Z,7.15
2023-02-01T01:56:02.777Z,7.25
2023-02-01T01:57:02.805Z,7.21
2023-02-01T01:58:02.715Z,7.24
2023-02-01T01:59:02.720Z,7.14
2023-02-01T02:00:02.746Z,7.17
2023-02-01T02:01:02.764Z,7.35
2023-02-01T02:02:02.748Z,7.29
2023-02-01T02:03:03.680Z,7.33
2023-02-01T02:04:02.683Z,7.32
2023-02-01T02:05:02.671Z,7.31
2023-02-01T02:06:03.656Z,7.23
2023-02-01T02:07:02.657Z,6.92
2023-02-01T02:08:02.650Z,7.00
2023-02-01T02:09:03.580Z,7.03
2023-02-01T02:10:02.605Z,7.02
2023-02-01T02:11:02.595Z,7.21
2023-02-01T02:12:03.574Z,7.29
2023-02-01T02:13:02.574Z,7.24
2023-02-01T02:14:02.554Z,7.31
2023-02-01T02:15:03.652Z,7.24
2023-02-01T02:16:02.557Z,7.18
2023-02-01T02:17:02.518Z,7.24
2023-02-01T02:18:02.537Z,7.05
2023-02-01T02:19:02.494Z,7.00
2023-02-01T02:20:02.507Z,7.05
2023-02-01T02:21:02.546Z,7.10
2023-02-01T02:22:02.451Z,7.24
2023-02-01T02:23:02.496Z,7.28
2023-02-01T02:24:03.449Z,7.13
2023-02-01T02:25:02.454Z,7.14
2023-02-01T02:26:02.409Z,7.15
2023-02-01T02:27:02.437Z,7.00
2023-02-01T02:28:03.410Z,7.06
2023-02-01T02:29:02.409Z,6.82
2023-02-01T02:30:02.392Z,6.79
2023-02-01T02:31:02.437Z,6.81
2023-02-01T02:32:02.353Z,7.02
2023-02-01T02:33:02.352Z,7.00
2023-02-01T02:34:02.344Z,7.17
2023-02-01T02:35:02.325Z,7.10
2023-02-01T02:36:02.352Z,7.15
2023-02-01T02:37:03.287Z,7.13
2023-02-01T02:38:03.329Z,7.07
2023-02-01T02:39:02.284Z,7.10
2023-02-01T02:40:02.281Z,7.05
2023-02-01T02:41:02.246Z,7.02
2023-02-01T02:42:02.279Z,7.00
2023-02-01T02:43:02.228Z,7.15
2023-02-01T02:44:03.211Z,7.17
2023-02-01T02:45:02.230Z,7.06
2023-02-01T02:46:02.261Z,7.05
2023-02-01T02:47:02.211Z,7.13
2023-02-01T02:48:02.217Z,7.11
2023-02-01T02:49:02.164Z,7.14
2023-02-01T02:50:02.140Z,7.21
2023-02-01T02:51:02.143Z,7.15
2023-02-01T02:52:02.141Z,7.03
2023-02-01T02:53:02.136Z,6.96
2023-02-01T02:54:02.162Z,7.14
2023-02-01T02:55:02.098Z,7.20
2023-02-01T02:56:02.096Z,7.24
2023-02-01T02:57:02.100Z,7.18
2023-02-01T02:58:02.069Z,6.95
2023-02-01T02:59:02.062Z,7.00
2023-02-01T03:00:02.030Z,7.10
2023-02-01T03:01:02.089Z,7.00
2023-02-01T03:02:02.043Z,7.07
2023-02-01T03:03:01.996Z,7.00
2023-02-01T03:04:01.996Z,7.02
2023-02-01T03:05:02.006Z,7.05
2023-02-01T03:06:02.003Z,7.14
2023-02-01T03:07:01.952Z,7.24
2023-02-01T03:08:01.973Z,7.14
2023-02-01T03:09:02.947Z,7.05
2023-02-01T03:10:01.969Z,7.21
2023-02-01T03:11:01.917Z,7.33
2023-02-01T03:12:01.911Z,7.24
2023-02-01T03:13:01.897Z,7.36
2023-02-01T03:14:01.899Z,7.32
2023-02-01T03:15:01.876Z,7.23
2023-02-01T03:16:01.878Z,7.21
2023-02-01T03:17:01.873Z,7.20
2023-02-01T03:18:01.857Z,7.20
2023-02-01T03:19:01.856Z,7.21
2023-02-01T03:20:01.831Z,7.25
2023-02-01T03:21:01.813Z,7.35
2023-02-01T03:22:01.829Z,7.36
2023-02-01T03:23:01.791Z,7.36
2023-02-01T03:24:01.796Z,7.24
2023-02-01T03:25:01.767Z,7.31
2023-02-01T03:26:02.766Z,7.33
2023-02-01T03:27:02.738Z,7.35
2023-02-01T03:28:01.753Z,7.24
2023-02-01T03:29:01.786Z,7.29
2023-02-01T03:30:01.700Z,7.33
2023-02-01T03:31:01.827Z,7.29
2023-02-01T03:32:03.058Z,7.43
2023-02-01T03:33:01.802Z,7.40
2023-02-01T03:34:01.691Z,7.40
2023-02-01T03:35:01.723Z,7.36
2023-02-01T03:36:01.647Z,7.45
2023-02-01T03:37:02.632Z,7.43
2023-02-01T03:38:02.628Z,7.43
2023-02-01T03:39:01.620Z,7.42
2023-02-01T03:40:01.625Z,7.33
2023-02-01T03:41:01.627Z,7.47
2023-02-01T03:42:02.563Z,7.33
2023-02-01T03:43:01.596Z,7.42
2023-02-01T03:44:01.582Z,7.38
2023-02-01T03:45:02.546Z,7.42
2023-02-01T03:46:01.562Z,7.36
2023-02-01T03:47:02.538Z,7.40
2023-02-01T03:48:01.539Z,7.40
2023-02-01T03:49:02.496Z,7.36
2023-02-01T03:50:01.578Z,7.45
2023-02-01T03:51:01.543Z,7.25
2023-02-01T03:52:01.498Z,7.33
2023-02-01T03:53:02.437Z,7.29
2023-02-01T03:54:01.450Z,7.32
2023-02-01T03:55:01.462Z,7.32
2023-02-01T03:56:02.407Z,7.36
2023-02-01T03:57:02.400Z,7.40
2023-02-01T03:58:01.403Z,7.57
2023-02-01T03:59:01.402Z,7.61
2023-02-01T04:00:01.385Z,7.56
2023-02-01T04:01:01.485Z,7.63
2023-02-01T04:02:01.413Z,7.66
2023-02-01T04:03:01.384Z,7.60
2023-02-01T04:04:01.345Z,7.63
2023-02-01T04:05:02.318Z,7.66
2023-02-01T04:06:02.315Z,7.57
2023-02-01T04:07:01.328Z,7.42
2023-02-01T04:08:01.297Z,7.42
2023-02-01T04:09:01.261Z,7.48
2023-02-01T04:10:01.253Z,7.43
2023-02-01T04:11:01.263Z,7.48
2023-02-01T04:12:01.275Z,7.58
2023-02-01T04:13:01.247Z,7.57
2023-02-01T04:14:01.241Z,7.50
2023-02-01T04:15:01.200Z,7.54
2023-02-01T04:16:01.203Z,7.45
2023-02-01T04:17:01.212Z,7.57
2023-02-01T04:18:01.206Z,7.61
2023-02-01T04:19:01.164Z,7.53
2023-02-01T04:20:01.139Z,7.66
2023-02-01T04:21:02.157Z,7.63
2023-02-01T04:22:01.129Z,7.57
2023-02-01T04:23:01.139Z,7.67
2023-02-01T04:24:01.160Z,7.66
2023-02-01T04:25:01.106Z,7.66
2023-02-01T04:26:02.072Z,7.60
2023-02-01T04:27:01.127Z,7.58
2023-02-01T04:28:02.056Z,7.63
2023-02-01T04:29:01.042Z,7.60
2023-02-01T04:30:01.087Z,7.67
2023-02-01T04:31:01.135Z,7.69
2023-02-01T04:32:01.038Z,7.61
2023-02-01T04:33:01.017Z,7.67
2023-02-01T04:34:01.007Z,7.56
2023-02-01T04:35:00.988Z,7.47
2023-02-01T04:36:01.026Z,7.40
2023-02-01T04:37:00.987Z,7.35
2023-02-01T04:38:00.942Z,7.32
2023-02-01T04:39:00.957Z,7.40
2023-02-01T04:40:00.959Z,7.39
2023-02-01T04:41:00.953Z,7.56
2023-02-01T04:42:00.919Z,7.54
2023-02-01T04:43:00.915Z,7.42
2023-02-01T04:44:00.895Z,7.31
2023-02-01T04:45:01.865Z,7.29
2023-02-01T04:46:00.916Z,7.36
2023-02-01T04:47:00.913Z,7.39
2023-02-01T04:48:01.905Z,7.39
2023-02-01T04:49:00.832Z,7.56
2023-02-01T04:50:00.860Z,7.51
2023-02-01T04:51:00.814Z,7.54
2023-02-01T04:52:00.786Z,7.56
2023-02-01T04:53:00.803Z,7.54
2023-02-01T04:54:01.806Z,7.63
2023-02-01T04:55:00.812Z,7.54
2023-02-01T04:56:00.770Z,7.58
2023-02-01T04:57:00.734Z,7.58
2023-02-01T04:58:00.770Z,7.63
2023-02-01T04:59:00.728Z,7.54
2023-02-01T05:00:00.730Z,7.45
2023-02-01T05:01:00.741Z,7.51
2023-02-01T05:02:00.709Z,7.53
2023-02-01T05:03:00.688Z,7.50
2023-02-01T05:04:01.728Z,7.72
2023-02-01T05:05:00.726Z,7.56
2023-02-01T05:06:00.667Z,7.45
2023-02-01T05:07:00.674Z,7.38
2023-02-01T05:08:00.630Z,7.47
2023-02-01T05:09:00.641Z,7.38
2023-02-01T05:10:00.601Z,7.28
2023-02-01T05:11:00.620Z,7.24
2023-02-01T05:12:01.639Z,7.32
2023-02-01T05:13:00.558Z,7.35
2023-02-01T05:14:02.343Z,7.31
2023-02-01T05:15:01.549Z,7.21
2023-02-01T05:16:01.579Z,7.35
2023-02-01T05:17:00.520Z,7.28
2023-02-01T05:18:00.569Z,7.24
2023-02-01T05:19:00.511Z,7.23
2023-02-01T05:20:00.501Z,7.31
2023-02-01T05:21:00.480Z,7.42
2023-02-01T05:22:00.482Z,7.32
2023-02-01T05:23:00.473Z,7.42
2023-02-01T05:24:00.435Z,7.45
2023-02-01T05:25:00.480Z,7.47
2023-02-01T05:26:00.461Z,7.45
2023-02-01T05:27:00.398Z,7.42
2023-02-01T05:28:00.408Z,7.42
2023-02-01T05:29:00.406Z,7.43
2023-02-01T05:30:00.383Z,7.42
2023-02-01T05:31:00.482Z,7.40
2023-02-01T05:32:19.361Z,7.43
2023-02-01T05:33:01.347Z,7.40
2023-02-01T05:34:01.318Z,7.54
2023-02-01T05:35:00.312Z,7.53
2023-02-01T05:36:00.320Z,7.50
2023-02-01T05:37:00.356Z,7.51
2023-02-01T05:38:00.276Z,7.45
2023-02-01T05:39:00.293Z,7.57
2023-02-01T05:40:00.281Z,7.61
2023-02-01T05:41:00.280Z,7.53
2023-02-01T05:42:00.254Z,7.61
2023-02-01T05:43:00.223Z,7.70
2023-02-01T05:44:00.267Z,7.69
2023-02-01T05:45:00.218Z,7.60
2023-02-01T05:46:00.235Z,7.50
2023-02-01T05:47:00.219Z,7.43
2023-02-01T05:48:00.169Z,7.25
2023-02-01T05:49:00.212Z,7.33
2023-02-01T05:50:01.159Z,7.47
2023-02-01T05:51:00.150Z,7.48
2023-02-01T05:52:00.743Z,7.48
2023-02-01T05:53:01.134Z,7.50
2023-02-01T05:54:00.120Z,7.50
2023-02-01T05:55:00.148Z,7.43
2023-02-01T05:56:00.098Z,7.35
2023-02-01T05:57:00.095Z,7.24
2023-02-01T05:58:00.101Z,7.23
2023-02-01T05:59:00.056Z,7.28
2023-02-01T06:00:00.636Z,7.25
2023-02-01T06:01:00.019Z,7.32
2023-02-01T06:02:00.015Z,7.33
2023-02-01T06:03:00.088Z,7.42
2023-02-01T06:04:01.079Z,7.28
2023-02-01T06:05:01.006Z,7.25
2023-02-01T06:05:59.975Z,7.24
2023-02-01T06:06:59.997Z,7.32
2023-02-01T06:07:59.972Z,7.25
2023-02-01T06:08:59.955Z,7.21
2023-02-01T06:09:59.944Z,7.32
2023-02-01T06:10:59.927Z,7.38
2023-02-01T06:11:59.953Z,7.42
2023-02-01T06:12:59.918Z,7.40
2023-02-01T06:14:00.903Z,7.45
2023-02-01T06:15:07.516Z,7.69
2023-02-01T06:16:00.997Z,7.50
2023-02-01T06:16:59.843Z,7.47
2023-02-01T06:18:00.896Z,7.57
2023-02-01T06:18:59.832Z,7.48
2023-02-01T06:20:00.810Z,7.58
2023-02-01T06:20:59.819Z,7.56
2023-02-01T06:22:00.798Z,7.40
2023-02-01T06:22:59.791Z,7.39
2023-02-01T06:23:59.806Z,7.32
2023-02-01T06:24:59.767Z,7.47
2023-02-01T06:25:59.774Z,7.42
2023-02-01T06:26:59.739Z,7.56
2023-02-01T06:27:59.772Z,7.47
2023-02-01T06:28:59.733Z,7.42
2023-02-01T06:30:00.725Z,7.57
2023-02-01T06:31:00.876Z,7.48
2023-02-01T06:31:59.808Z,7.50
2023-02-01T06:33:00.732Z,7.32
2023-02-01T06:33:59.655Z,7.43
2023-02-01T06:34:59.725Z,7.43
2023-02-01T06:35:59.659Z,7.56
2023-02-01T06:37:00.648Z,7.39
2023-02-01T06:37:59.675Z,7.42
2023-02-01T06:38:59.608Z,7.40
2023-02-01T06:39:59.604Z,7.50
2023-02-01T06:40:59.594Z,7.48
2023-02-01T06:41:59.601Z,7.50
2023-02-01T06:43:00.597Z,7.48
2023-02-01T06:43:59.579Z,7.43
2023-02-01T06:44:59.597Z,7.57
2023-02-01T06:45:59.533Z,7.48
2023-02-01T06:46:59.711Z,7.47
2023-02-01T06:48:00.532Z,7.40
2023-02-01T06:48:59.498Z,7.48
2023-02-01T06:49:59.479Z,7.56
2023-02-01T06:50:59.483Z,7.35
2023-02-01T06:51:59.455Z,7.50
2023-02-01T06:52:59.471Z,7.56
2023-02-01T06:54:00.427Z,7.70
2023-02-01T06:54:59.447Z,7.51
2023-02-01T06:56:00.464Z,7.48
2023-02-01T06:56:59.488Z,7.51
2023-02-01T06:57:59.413Z,7.66
2023-02-01T06:58:59.412Z,7.51
2023-02-01T06:59:59.387Z,7.66
2023-02-01T07:00:59.422Z,7.75
2023-02-01T07:01:59.427Z,7.63
2023-02-01T07:02:59.348Z,7.60
2023-02-01T07:03:59.347Z,7.79
2023-02-01T07:04:59.388Z,7.63
2023-02-01T07:05:59.327Z,7.69
2023-02-01T07:06:59.325Z,7.76
2023-02-01T07:07:59.291Z,7.67
2023-02-01T07:08:59.348Z,7.83
2023-02-01T07:09:59.340Z,7.75
2023-02-01T07:10:59.253Z,7.63
2023-02-01T07:11:59.292Z,7.58
2023-02-01T07:12:59.260Z,7.75
2023-02-01T07:14:00.212Z,7.73
2023-02-01T07:14:59.205Z,7.75
2023-02-01T07:16:00.366Z,7.70
2023-02-01T07:16:59.232Z,7.75
2023-02-01T07:17:59.194Z,7.75
2023-02-01T07:18:59.165Z,7.72
2023-02-01T07:19:59.161Z,7.73
2023-02-01T07:21:00.145Z,7.83
2023-02-01T07:22:00.197Z,7.72
2023-02-01T07:22:59.126Z,7.73
2023-02-01T07:23:59.131Z,7.75
2023-02-01T07:24:59.087Z,7.83
2023-02-01T07:25:59.143Z,7.87
2023-02-01T07:27:00.111Z,7.88
2023-02-01T07:27:59.194Z,7.83
2023-02-01T07:28:59.067Z,7.82
2023-02-01T07:29:59.059Z,7.97
2023-02-01T07:30:59.057Z,8.00
2023-02-01T07:31:59.077Z,7.98
2023-02-01T07:32:59.053Z,7.90
2023-02-01T07:33:59.013Z,7.79
2023-02-01T07:34:59.978Z,7.87
2023-02-01T07:35:59.018Z,7.94
2023-02-01T07:36:58.980Z,7.73
2023-02-01T07:37:59.956Z,7.72
2023-02-01T07:38:58.964Z,7.73
2023-02-01T07:39:58.971Z,7.87
2023-02-01T07:40:58.951Z,7.95
2023-02-01T07:41:58.912Z,7.95
2023-02-01T07:42:58.922Z,7.85
2023-02-01T07:43:58.929Z,7.95
2023-02-01T07:45:07.894Z,7.98
2023-02-01T07:45:59.963Z,7.79
2023-02-01T07:46:58.839Z,7.87
2023-02-01T07:47:59.863Z,7.90
2023-02-01T07:48:58.831Z,8.05
2023-02-01T07:49:58.835Z,8.10
2023-02-01T07:50:59.879Z,8.09
2023-02-01T07:51:58.831Z,8.12
2023-02-01T07:52:58.777Z,8.00
2023-02-01T07:53:58.783Z,8.03
2023-02-01T07:55:06.388Z,7.97
2023-02-01T07:55:59.358Z,7.98
2023-02-01T07:56:58.791Z,8.05
2023-02-01T07:57:58.731Z,8.00
2023-02-01T07:58:58.743Z,8.00
2023-02-01T07:59:58.727Z,8.06
2023-02-01T08:00:58.780Z,8.08
2023-02-01T08:01:58.754Z,8.00
2023-02-01T08:02:58.687Z,8.01
2023-02-01T08:03:58.669Z,8.09
2023-02-01T08:04:59.765Z,8.08
2023-02-01T08:05:58.633Z,7.93
2023-02-01T08:06:58.668Z,7.93
2023-02-01T08:07:58.756Z,8.10
2023-02-01T08:08:58.614Z,8.13
2023-02-01T08:09:58.604Z,8.12
2023-02-01T08:10:58.598Z,8.24
2023-02-01T08:11:58.598Z,8.20
2023-02-01T08:12:58.632Z,8.15
2023-02-01T08:13:59.579Z,8.15
2023-02-01T08:14:58.553Z,8.06
2023-02-01T08:15:58.542Z,8.06
2023-02-01T08:16:58.549Z,8.06
2023-02-01T08:17:58.521Z,8.05
2023-02-01T08:18:59.507Z,7.88
2023-02-01T08:19:58.525Z,7.95
2023-02-01T08:20:58.492Z,7.72
2023-02-01T08:21:58.495Z,7.85
2023-02-01T08:22:58.446Z,7.85
2023-02-01T08:23:58.437Z,7.94
2023-02-01T08:24:58.469Z,8.01
2023-02-01T08:25:58.464Z,8.01
2023-02-01T08:26:58.459Z,8.06
2023-02-01T08:27:59.391Z,8.06
2023-02-01T08:28:58.397Z,8.12
2023-02-01T08:29:58.373Z,8.18
2023-02-01T08:30:58.459Z,8.03
2023-02-01T08:31:59.471Z,8.16
2023-02-01T08:32:58.385Z,8.33
2023-02-01T08:33:59.354Z,8.06
2023-02-01T08:34:59.341Z,8.05
2023-02-01T08:35:59.316Z,8.10
2023-02-01T08:36:59.341Z,7.93
2023-02-01T08:37:58.289Z,7.93
2023-02-01T08:38:59.313Z,7.93
2023-02-01T08:39:58.259Z,7.85
2023-02-01T08:40:58.306Z,7.87
2023-02-01T08:41:58.260Z,7.91
2023-02-01T08:42:58.249Z,7.75
2023-02-01T08:43:58.220Z,7.77
2023-02-01T08:44:59.211Z,7.88
2023-02-01T08:45:58.249Z,7.95
2023-02-01T08:46:58.197Z,7.94
2023-02-01T08:47:58.234Z,7.73
2023-02-01T08:48:58.179Z,7.60
2023-02-01T08:49:58.169Z,7.48
2023-02-01T08:50:59.151Z,7.40
2023-02-01T08:52:00.995Z,7.40
2023-02-01T08:52:59.122Z,7.38
2023-02-01T08:53:58.148Z,7.21
2023-02-01T08:54:59.124Z,7.00
2023-02-01T08:55:58.117Z,6.97
2023-02-01T08:56:58.112Z,6.82
2023-02-01T08:57:58.074Z,6.88
2023-02-01T08:58:58.048Z,7.00
2023-02-01T08:59:58.038Z,7.11
2023-02-01T09:00:58.120Z,6.96
2023-02-01T09:01:59.046Z,6.88
2023-02-01T09:02:58.014Z,6.67
2023-02-01T09:03:59.083Z,6.85
2023-02-01T09:04:59.466Z,6.79
2023-02-01T09:05:57.984Z,6.89
2023-02-01T09:06:58.004Z,7.02
2023-02-01T09:07:57.972Z,7.07
2023-02-01T09:08:57.947Z,7.13
2023-02-01T09:09:58.959Z,7.20
2023-02-01T09:10:57.946Z,7.24
2023-02-01T09:11:57.944Z,7.25
2023-02-01T09:12:57.915Z,7.24
2023-02-01T09:13:57.917Z,7.25
2023-02-01T09:14:57.920Z,6.85
2023-02-01T09:15:57.932Z,6.87
2023-02-01T09:16:57.859Z,7.03
2023-02-01T09:17:57.855Z,7.13
2023-02-01T09:19:23.872Z,7.20
2023-02-01T09:19:58.850Z,7.13
2023-02-01T09:20:57.849Z,7.20
2023-02-01T09:21:57.838Z,7.07
2023-02-01T09:22:58.795Z,7.03
2023-02-01T09:23:57.780Z,7.02
2023-02-01T09:24:57.844Z,7.05
2023-02-01T09:25:57.798Z,7.18
2023-02-01T09:26:57.830Z,7.17
2023-02-01T09:27:57.774Z,7.15
2023-02-01T09:28:57.740Z,7.23
2023-02-01T09:29:58.705Z,7.07
2023-02-01T09:30:58.891Z,6.97
2023-02-01T09:32:03.708Z,7.24
2023-02-01T09:32:58.705Z,7.05
2023-02-01T09:33:58.666Z,7.20
2023-02-01T09:34:57.683Z,7.03
2023-02-01T09:35:57.673Z,7.05
2023-02-01T09:36:57.688Z,7.06
2023-02-01T09:37:57.619Z,7.14
2023-02-01T09:38:58.616Z,7.29
2023-02-01T09:39:57.604Z,7.33
2023-02-01T09:40:57.615Z,7.32
2023-02-01T09:41:57.609Z,7.23
2023-02-01T09:42:57.571Z,7.33
2023-02-01T09:43:57.549Z,7.45
2023-02-01T09:44:58.536Z,7.56
2023-02-01T09:45:57.605Z,7.69
2023-02-01T09:46:58.629Z,7.75
2023-02-01T09:47:58.519Z,7.70
2023-02-01T09:48:58.493Z,7.97
2023-02-01T09:49:57.504Z,7.82
2023-02-01T09:50:57.526Z,7.76
2023-02-01T09:51:57.496Z,7.67
2023-02-01T09:52:57.492Z,7.80
2023-02-01T09:53:57.467Z,7.91
2023-02-01T09:54:58.463Z,7.72
2023-02-01T09:55:57.424Z,7.91
2023-02-01T09:56:57.425Z,7.85
2023-02-01T09:57:58.431Z,7.90
2023-02-01T09:58:57.445Z,7.85
2023-02-01T09:59:58.490Z,7.90
2023-02-01T10:00:57.405Z,7.97
2023-02-01T10:01:57.347Z,8.09
2023-02-01T10:02:58.348Z,8.08
2023-02-01T10:03:57.340Z,8.09
2023-02-01T10:04:57.344Z,8.09
2023-02-01T10:05:57.342Z,7.87
2023-02-01T10:06:57.296Z,7.94
2023-02-01T10:07:57.305Z,8.08
2023-02-01T10:08:57.277Z,8.01
2023-02-01T10:09:57.275Z,8.10
2023-02-01T10:10:57.299Z,8.03
2023-02-01T10:11:57.274Z,8.15
2023-02-01T10:12:57.239Z,8.18
2023-02-01T10:13:57.248Z,8.09
2023-02-01T10:14:57.264Z,8.20
2023-02-01T10:15:57.320Z,8.30
2023-02-01T10:16:57.259Z,8.36
2023-02-01T10:17:58.098Z,8.41
2023-02-01T10:18:57.156Z,8.52
2023-02-01T10:19:57.170Z,8.36
2023-02-01T10:20:57.182Z,8.44
2023-02-01T10:21:58.162Z,8.44
2023-02-01T10:23:16.380Z,8.44
2023-02-01T10:24:01.150Z,8.36
2023-02-01T10:24:58.159Z,8.33
2023-02-01T10:25:57.122Z,8.46
2023-02-01T10:26:57.114Z,8.44
2023-02-01T10:27:57.080Z,8.56
2023-02-01T10:28:57.137Z,8.60
2023-02-01T10:29:58.056Z,8.58
2023-02-01T10:30:57.119Z,8.53
2023-02-01T10:31:58.062Z,8.71
2023-02-01T10:32:57.014Z,8.78
2023-02-01T10:33:57.022Z,8.79
2023-02-01T10:34:57.043Z,8.78
2023-02-01T10:35:56.998Z,8.71
2023-02-01T10:36:56.969Z,8.76
2023-02-01T10:37:56.949Z,8.79
2023-02-01T10:38:57.975Z,8.69
2023-02-01T10:39:56.947Z,8.81
2023-02-01T10:40:56.974Z,8.56
2023-02-01T10:41:56.921Z,8.74
2023-02-01T10:42:57.899Z,8.92
2023-02-01T10:43:56.906Z,8.84
2023-02-01T10:44:56.896Z,8.84
2023-02-01T10:45:57.323Z,8.79
2023-02-01T10:46:57.877Z,8.82
2023-02-01T10:47:56.873Z,8.71
2023-02-01T10:48:56.887Z,8.53
2023-02-01T10:49:57.842Z,8.69
2023-02-01T10:50:56.827Z,8.64
2023-02-01T10:51:56.824Z,8.73
2023-02-01T10:52:57.805Z,8.73
2023-02-01T10:53:56.781Z,8.88
2023-02-01T10:54:56.779Z,9.06
2023-02-01T10:55:56.835Z,9.03
2023-02-01T10:56:56.775Z,8.94
2023-02-01T10:57:56.731Z,8.92
2023-02-01T10:58:56.733Z,8.87
2023-02-01T10:59:56.750Z,9.08
2023-02-01T11:00:56.781Z,9.18
2023-02-01T11:01:59.573Z,9.08
2023-02-01T11:02:56.784Z,9.31
2023-02-01T11:03:56.703Z,9.47
2023-02-01T11:04:56.663Z,9.44
2023-02-01T11:05:56.672Z,9.48
2023-02-01T11:06:56.654Z,9.61
2023-02-01T11:07:56.637Z,9.69
2023-02-01T11:08:57.662Z,9.86
2023-02-01T11:09:56.613Z,9.92
2023-02-01T11:10:56.599Z,9.92
2023-02-01T11:11:56.616Z,10.09
2023-02-01T11:12:57.605Z,9.94
2023-02-01T11:13:56.621Z,9.98
2023-02-01T11:14:56.575Z,9.62
2023-02-01T11:15:57.302Z,9.40
2023-02-01T11:16:56.608Z,9.26
2023-02-01T11:17:56.557Z,9.28
2023-02-01T11:18:56.517Z,9.08
2023-02-01T11:19:56.529Z,9.23
2023-02-01T11:20:56.547Z,9.34
2023-02-01T11:21:56.558Z,9.43
2023-02-01T11:22:56.476Z,9.51
2023-02-01T11:23:57.495Z,9.32
2023-02-01T11:24:56.452Z,9.31
2023-02-01T11:25:56.458Z,9.23
2023-02-01T11:26:56.570Z,9.21
2023-02-01T11:27:56.437Z,9.22
2023-02-01T11:28:56.401Z,9.31
2023-02-01T11:29:56.393Z,9.22
2023-02-01T11:30:56.548Z,9.46
2023-02-01T11:31:56.429Z,9.36
2023-02-01T11:32:56.404Z,9.46
2023-02-01T11:33:56.358Z,9.41
2023-02-01T11:34:56.347Z,9.68
2023-02-01T11:35:56.341Z,9.69
2023-02-01T11:36:56.342Z,9.76
2023-02-01T11:37:56.344Z,9.65
2023-02-01T11:38:56.333Z,9.68
2023-02-01T11:39:56.296Z,9.95
2023-02-01T11:40:56.267Z,9.92
2023-02-01T11:41:56.280Z,9.98
2023-02-01T11:42:56.286Z,9.80
2023-02-01T11:43:56.272Z,9.89
2023-02-01T11:44:56.220Z,9.91
2023-02-01T11:45:56.261Z,9.74
2023-02-01T11:46:56.396Z,9.69
2023-02-01T11:47:56.198Z,9.61
2023-02-01T11:48:56.209Z,9.62
2023-02-01T11:49:56.193Z,9.80
2023-02-01T11:50:56.163Z,9.69
2023-02-01T11:51:56.211Z,9.58
2023-02-01T11:52:56.186Z,9.55
2023-02-01T11:53:56.128Z,9.58
2023-02-01T11:54:56.137Z,9.69
2023-02-01T11:55:56.125Z,9.58
2023-02-01T11:56:56.107Z,9.54
2023-02-01T11:57:56.131Z,9.55
2023-02-01T11:58:56.075Z,9.54
2023-02-01T11:59:57.392Z,9.68
2023-02-01T12:00:56.068Z,9.66
2023-02-01T12:01:57.159Z,9.59
2023-02-01T12:02:56.121Z,9.64
2023-02-01T12:03:56.046Z,9.84
2023-02-01T12:04:56.035Z,9.98
2023-02-01T12:05:56.004Z,9.82
2023-02-01T12:06:56.013Z,9.91
2023-02-01T12:07:56.016Z,9.95
2023-02-01T12:08:55.973Z,9.99
2023-02-01T12:09:56.005Z,9.98
2023-02-01T12:10:55.956Z,9.84
2023-02-01T12:11:55.983Z,9.84
2023-02-01T12:12:55.946Z,9.69
2023-02-01T12:13:55.948Z,9.76
2023-02-01T12:14:55.899Z,9.91
2023-02-01T12:15:55.922Z,9.87
2023-02-01T12:16:55.927Z,9.82
2023-02-01T12:17:55.875Z,9.92
2023-02-01T12:18:56.887Z,9.91
2023-02-01T12:19:56.172Z,10.02
2023-02-01T12:20:56.837Z,10.09
2023-02-01T12:21:55.820Z,10.05
2023-02-01T12:22:55.820Z,10.07
2023-02-01T12:23:55.834Z,9.86
2023-02-01T12:24:56.827Z,9.97
2023-02-01T12:25:55.816Z,9.87
2023-02-01T12:26:55.967Z,9.87
2023-02-01T12:27:55.768Z,9.91
2023-02-01T12:28:55.766Z,9.94
2023-02-01T12:29:55.810Z,9.94
2023-02-01T12:30:55.766Z,9.79
2023-02-01T12:31:55.889Z,9.87
2023-02-01T12:32:55.716Z,9.86
2023-02-01T12:33:55.700Z,9.86
2023-02-01T12:34:55.679Z,10.09
2023-02-01T12:35:56.704Z,10.09
2023-02-01T12:36:55.688Z,10.15
2023-02-01T12:37:56.909Z,9.91
2023-02-01T12:38:55.637Z,10.04
2023-02-01T12:39:55.632Z,10.12
2023-02-01T12:40:55.641Z,10.15
2023-02-01T12:41:56.614Z,10.12
2023-02-01T12:42:55.610Z,9.91
2023-02-01T12:43:55.629Z,9.86
2023-02-01T12:44:56.596Z,9.92
2023-02-01T12:45:56.630Z,9.98
2023-02-01T12:46:55.564Z,9.80
2023-02-01T12:47:55.579Z,9.89
2023-02-01T12:48:55.568Z,9.99
2023-02-01T12:49:55.539Z,10.12
2023-02-01T12:50:55.543Z,10.01
2023-02-01T12:51:56.518Z,9.87
2023-02-01T12:52:55.508Z,9.91
2023-02-01T12:53:55.539Z,9.69
2023-02-01T12:54:55.509Z,9.84
2023-02-01T12:55:55.505Z,9.87
2023-02-01T12:56:55.445Z,9.86
2023-02-01T12:57:56.480Z,9.79
2023-02-01T12:58:55.462Z,9.69
2023-02-01T12:59:55.483Z,9.59
2023-02-01T13:00:56.474Z,9.79
2023-02-01T13:01:55.448Z,9.82
2023-02-01T13:02:55.385Z,9.64
2023-02-01T13:03:55.420Z,9.68
2023-02-01T13:04:55.370Z,9.79
2023-02-01T13:05:55.383Z,9.68
2023-02-01T13:06:55.371Z,9.59
2023-02-01T13:07:56.161Z,9.77
2023-02-01T13:08:56.403Z,9.80
2023-02-01T13:09:56.327Z,9.69
2023-02-01T13:10:56.369Z,9.69
2023-02-01T13:11:55.312Z,9.58
2023-02-01T13:12:55.370Z,9.46
2023-02-01T13:13:55.280Z,9.43
2023-02-01T13:14:55.279Z,9.46
2023-02-01T13:15:55.296Z,9.46
2023-02-01T13:16:55.281Z,9.62
2023-02-01T13:17:55.352Z,9.44